Askew, Mississippi
Current Conditions -  °F | °C
As of 1:15 AM on Thursday 18 Dec 2014 (Local Time) from KUTA Reporting Station
Overcast Overcast  
Wind Chill: -1°   Ceiling: 8000
Heat Index:   Visibility: 10mi
Dew Point:   Wind: 12mph
Humidity: 87%   Direction: 340°NNW
Pressure: 30.3"   Gusts: NA
Location:  34.441°N, 90.1719°W
Report Text: KUTA 180715Z AUTO 34010KT 10SM OVC080 03/01 A3030 RMK AO2
Loading
Personal Weather Stations






























Interactive Weather Map New forecast layout! Learn more

10-Day Weather Forecast

Advertisements
Track Severe Weather on mobile